sensor_id;sensor_type;location;lat;lon;timestamp;pressure;altitude;pressure_sealevel;temperature;humidity
56270;BME280;42176;43.240;27.880;2023-07-13T00:01:45;100476.00;;;22.35;100.00
56270;BME280;42176;43.240;27.880;2023-07-13T00:03:47;100500.00;;;22.40;100.00
56270;BME280;42176;43.240;27.880;2023-07-13T00:05:57;100503.41;;;22.43;100.00
56270;BME280;42176;43.240;27.880;2023-07-13T00:07:57;100504.06;;;22.47;100.00
56270;BME280;42176;43.240;27.880;2023-07-13T00:09:58;100503.53;;;22.55;100.00
56270;BME280;42176;43.240;27.880;2023-07-13T00:11:59;100490.94;;;22.55;100.00
56270;BME280;42176;43.240;27.880;2023-07-13T00:14:00;100491.88;;;22.54;100.00
56270;BME280;42176;43.240;27.880;2023-07-13T00:16:00;100487.78;;;22.61;100.00
56270;BME280;42176;43.240;27.880;2023-07-13T00:18:01;100473.94;;;22.53;100.00
56270;BME280;42176;43.240;27.880;2023-07-13T00:20:02;100464.00;;;22.54;100.00
56270;BME280;42176;43.240;27.880;2023-07-13T00:22:02;100459.69;;;22.51;100.00
56270;BME280;42176;43.240;27.880;2023-07-13T00:24:03;100449.13;;;22.61;100.00
56270;BME280;42176;43.240;27.880;2023-07-13T00:26:06;100448.00;;;22.50;100.00
56270;BME280;42176;43.240;27.880;2023-07-13T00:28:07;100459.56;;;22.53;100.00
56270;BME280;42176;43.240;27.880;2023-07-13T00:30:07;100456.22;;;22.49;100.00
56270;BME280;42176;43.240;27.880;2023-07-13T00:32:09;100389.94;;;22.16;100.00
56270;BME280;42176;43.240;27.880;2023-07-13T00:34:09;100438.63;;;22.56;100.00
56270;BME280;42176;43.240;27.880;2023-07-13T00:36:11;100432.47;;;22.54;100.00
56270;BME280;42176;43.240;27.880;2023-07-13T00:38:12;100433.97;;;22.58;100.00
56270;BME280;42176;43.240;27.880;2023-07-13T00:40:13;100423.59;;;22.52;100.00
56270;BME280;42176;43.240;27.880;2023-07-13T00:42:14;100427.25;;;22.51;100.00
56270;BME280;42176;43.240;27.880;2023-07-13T00:44:17;100418.59;;;22.46;100.00
56270;BME280;42176;43.240;27.880;2023-07-13T00:46:21;100416.28;;;22.40;100.00
56270;BME280;42176;43.240;27.880;2023-07-13T00:48:26;100420.72;;;22.41;100.00
56270;BME280;42176;43.240;27.880;2023-07-13T00:50:27;100423.78;;;22.49;100.00
56270;BME280;42176;43.240;27.880;2023-07-13T00:52:28;100399.47;;;22.49;100.00
56270;BME280;42176;43.240;27.880;2023-07-13T00:54:36;100381.88;;;22.43;100.00
56270;BME280;42176;43.240;27.880;2023-07-13T00:56:37;100359.00;;;22.34;100.00
56270;BME280;42176;43.240;27.880;2023-07-13T00:58:38;100323.50;;;22.41;100.00
56270;BME280;42176;43.240;27.880;2023-07-13T01:00:39;100302.56;;;22.44;100.00
56270;BME280;42176;43.240;27.880;2023-07-13T01:02:42;100304.25;;;22.32;100.00
56270;BME280;42176;43.240;27.880;2023-07-13T01:04:44;100333.63;;;22.37;100.00
56270;BME280;42176;43.240;27.880;2023-07-13T01:06:45;100348.63;;;22.28;100.00
56270;BME280;42176;43.240;27.880;2023-07-13T01:08:47;100378.56;;;22.25;100.00
56270;BME280;42176;43.240;27.880;2023-07-13T01:10:52;100375.28;;;22.20;100.00
56270;BME280;42176;43.240;27.880;2023-07-13T01:12:53;100370.44;;;22.25;100.00
56270;BME280;42176;43.240;27.880;2023-07-13T01:15:01;100362.13;;;22.28;100.00
56270;BME280;42176;43.240;27.880;2023-07-13T01:17:02;100347.44;;;22.32;100.00
56270;BME280;42176;43.240;27.880;2023-07-13T01:19:03;100299.81;;;22.31;100.00
56270;BME280;42176;43.240;27.880;2023-07-13T01:21:08;100265.81;;;22.29;100.00
56270;BME280;42176;43.240;27.880;2023-07-13T01:23:11;100251.97;;;22.33;100.00
56270;BME280;42176;43.240;27.880;2023-07-13T01:25:13;100226.06;;;22.31;100.00
56270;BME280;42176;43.240;27.880;2023-07-13T01:27:17;100227.34;;;22.38;100.00
56270;BME280;42176;43.240;27.880;2023-07-13T01:29:17;100235.56;;;22.36;100.00
56270;BME280;42176;43.240;27.880;2023-07-13T01:31:18;100243.47;;;22.40;100.00
56270;BME280;42176;43.240;27.880;2023-07-13T01:33:18;100220.88;;;22.41;100.00
56270;BME280;42176;43.240;27.880;2023-07-13T01:35:19;100198.34;;;22.42;100.00
56270;BME280;42176;43.240;27.880;2023-07-13T01:37:20;100189.25;;;22.43;100.00
56270;BME280;42176;43.240;27.880;2023-07-13T01:39:23;100182.66;;;22.47;100.00
56270;BME280;42176;43.240;27.880;2023-07-13T01:41:23;100173.56;;;22.48;100.00
56270;BME280;42176;43.240;27.880;2023-07-13T01:43:24;100165.25;;;22.51;100.00
56270;BME280;42176;43.240;27.880;2023-07-13T01:45:24;100175.31;;;22.49;100.00
56270;BME280;42176;43.240;27.880;2023-07-13T01:47:25;100128.94;;;22.29;100.00
56270;BME280;42176;43.240;27.880;2023-07-13T01:49:26;100178.75;;;22.51;100.00
56270;BME280;42176;43.240;27.880;2023-07-13T01:51:26;100178.97;;;22.48;100.00
56270;BME280;42176;43.240;27.880;2023-07-13T01:53:27;100172.81;;;22.46;100.00
56270;BME280;42176;43.240;27.880;2023-07-13T01:55:28;100171.84;;;22.47;100.00
56270;BME280;42176;43.240;27.880;2023-07-13T01:57:28;100162.00;;;22.46;100.00
56270;BME280;42176;43.240;27.880;2023-07-13T01:59:29;100153.91;;;22.46;100.00
56270;BME280;42176;43.240;27.880;2023-07-13T02:01:29;100161.03;;;22.47;100.00
56270;BME280;42176;43.240;27.880;2023-07-13T02:03:30;100143.13;;;22.46;100.00
56270;BME280;42176;43.240;27.880;2023-07-13T02:05:31;100142.25;;;22.45;100.00
56270;BME280;42176;43.240;27.880;2023-07-13T02:07:31;100142.13;;;22.47;100.00
56270;BME280;42176;43.240;27.880;2023-07-13T02:09:31;100135.75;;;22.48;100.00
56270;BME280;42176;43.240;27.880;2023-07-13T02:11:32;100127.13;;;22.43;100.00
56270;BME280;42176;43.240;27.880;2023-07-13T02:13:33;100139.44;;;22.47;100.00
56270;BME280;42176;43.240;27.880;2023-07-13T02:15:33;100135.97;;;22.45;100.00
56270;BME280;42176;43.240;27.880;2023-07-13T02:17:35;100131.56;;;22.44;100.00
56270;BME280;42176;43.240;27.880;2023-07-13T02:19:36;100134.25;;;22.44;100.00
56270;BME280;42176;43.240;27.880;2023-07-13T02:21:36;100140.72;;;22.41;100.00
56270;BME280;42176;43.240;27.880;2023-07-13T02:23:37;100129.06;;;22.41;100.00
56270;BME280;42176;43.240;27.880;2023-07-13T02:25:37;100132.75;;;22.40;100.00
56270;BME280;42176;43.240;27.880;2023-07-13T02:27:38;100131.00;;;22.39;100.00
56270;BME280;42176;43.240;27.880;2023-07-13T02:29:38;100132.94;;;22.36;100.00
56270;BME280;42176;43.240;27.880;2023-07-13T02:31:38;100129.50;;;22.34;100.00
56270;BME280;42176;43.240;27.880;2023-07-13T02:33:39;100123.88;;;22.38;100.00
56270;BME280;42176;43.240;27.880;2023-07-13T02:35:39;100127.56;;;22.36;100.00
56270;BME280;42176;43.240;27.880;2023-07-13T02:37:40;100122.16;;;22.36;100.00
56270;BME280;42176;43.240;27.880;2023-07-13T02:39:41;100124.09;;;22.34;100.00
56270;BME280;42176;43.240;27.880;2023-07-13T02:41:41;100124.84;;;22.36;100.00
56270;BME280;42176;43.240;27.880;2023-07-13T02:43:42;100127.56;;;22.36;100.00
56270;BME280;42176;43.240;27.880;2023-07-13T02:45:45;100127.56;;;22.36;100.00
56270;BME280;42176;43.240;27.880;2023-07-13T02:47:46;100115.03;;;22.35;100.00
56270;BME280;42176;43.240;27.880;2023-07-13T02:49:48;100091.28;;;22.15;100.00
56270;BME280;42176;43.240;27.880;2023-07-13T02:51:48;100116.19;;;22.31;100.00
56270;BME280;42176;43.240;27.880;2023-07-13T02:53:49;100128.31;;;22.39;100.00
56270;BME280;42176;43.240;27.880;2023-07-13T02:55:49;100125.47;;;22.40;100.00
56270;BME280;42176;43.240;27.880;2023-07-13T02:57:50;100124.41;;;22.43;100.00
56270;BME280;42176;43.240;27.880;2023-07-13T02:59:51;100128.19;;;22.40;100.00
56270;BME280;42176;43.240;27.880;2023-07-13T03:01:52;100119.03;;;22.43;100.00
56270;BME280;42176;43.240;27.880;2023-07-13T03:03:52;100113.72;;;22.41;100.00
56270;BME280;42176;43.240;27.880;2023-07-13T03:05:59;100124.97;;;22.48;100.00
56270;BME280;42176;43.240;27.880;2023-07-13T03:08:00;100112.44;;;22.47;100.00
56270;BME280;42176;43.240;27.880;2023-07-13T03:10:01;100117.06;;;22.58;100.00
56270;BME280;42176;43.240;27.880;2023-07-13T03:12:01;100111.94;;;22.66;100.00
56270;BME280;42176;43.240;27.880;2023-07-13T03:14:02;100108.59;;;22.75;100.00
56270;BME280;42176;43.240;27.880;2023-07-13T03:16:02;100104.78;;;22.78;100.00
56270;BME280;42176;43.240;27.880;2023-07-13T03:18:03;100101.31;;;22.76;100.00
56270;BME280;42176;43.240;27.880;2023-07-13T03:20:04;100106.69;;;22.89;100.00
56270;BME280;42176;43.240;27.880;2023-07-13T03:22:05;100107.97;;;22.96;100.00
56270;BME280;42176;43.240;27.880;2023-07-13T03:24:05;100104.03;;;23.00;100.00
56270;BME280;42176;43.240;27.880;2023-07-13T03:26:15;100104.22;;;23.10;100.00
56270;BME280;42176;43.240;27.880;2023-07-13T03:28:16;100099.34;;;23.15;100.00
56270;BME280;42176;43.240;27.880;2023-07-13T03:30:16;100101.91;;;23.30;100.00
56270;BME280;42176;43.240;27.880;2023-07-13T03:32:17;100103.19;;;23.48;100.00
56270;BME280;42176;43.240;27.880;2023-07-13T03:34:17;100103.97;;;23.62;100.00
56270;BME280;42176;43.240;27.880;2023-07-13T03:36:21;100104.38;;;23.91;100.00
56270;BME280;42176;43.240;27.880;2023-07-13T03:38:22;100100.88;;;24.25;100.00
56270;BME280;42176;43.240;27.880;2023-07-13T03:40:23;100101.22;;;24.54;100.00
56270;BME280;42176;43.240;27.880;2023-07-13T03:42:23;100096.16;;;24.84;100.00
56270;BME280;42176;43.240;27.880;2023-07-13T03:44:24;100090.13;;;25.13;100.00
56270;BME280;42176;43.240;27.880;2023-07-13T03:46:24;100091.28;;;25.43;100.00
56270;BME280;42176;43.240;27.880;2023-07-13T03:48:25;100089.19;;;25.67;100.00
56270;BME280;42176;43.240;27.880;2023-07-13T03:50:25;100102.78;;;25.98;100.00
56270;BME280;42176;43.240;27.880;2023-07-13T03:52:26;100094.22;;;26.24;100.00
56270;BME280;42176;43.240;27.880;2023-07-13T03:54:26;100093.34;;;26.55;100.00
56270;BME280;42176;43.240;27.880;2023-07-13T03:56:27;100089.97;;;26.82;100.00
56270;BME280;42176;43.240;27.880;2023-07-13T03:58:33;100094.44;;;27.03;100.00
56270;BME280;42176;43.240;27.880;2023-07-13T04:00:33;100094.88;;;27.28;100.00
56270;BME280;42176;43.240;27.880;2023-07-13T04:02:34;100099.78;;;27.54;97.28
56270;BME280;42176;43.240;27.880;2023-07-13T04:04:35;100103.44;;;27.82;97.85
56270;BME280;42176;43.240;27.880;2023-07-13T04:06:37;100100.84;;;28.10;96.30
56270;BME280;42176;43.240;27.880;2023-07-13T04:08:37;100100.28;;;28.34;93.79
56270;BME280;42176;43.240;27.880;2023-07-13T04:10:38;100099.69;;;28.68;92.46
56270;BME280;42176;43.240;27.880;2023-07-13T04:12:38;100095.94;;;28.97;89.98
56270;BME280;42176;43.240;27.880;2023-07-13T04:14:39;100088.00;;;29.22;87.91
56270;BME280;42176;43.240;27.880;2023-07-13T04:16:39;100101.97;;;29.55;87.76
56270;BME280;42176;43.240;27.880;2023-07-13T04:18:39;100093.41;;;29.76;85.16
56270;BME280;42176;43.240;27.880;2023-07-13T04:20:41;100099.66;;;30.13;82.48
56270;BME280;42176;43.240;27.880;2023-07-13T04:22:41;100097.44;;;30.51;80.47
56270;BME280;42176;43.240;27.880;2023-07-13T04:24:41;100091.41;;;30.82;76.55
56270;BME280;42176;43.240;27.880;2023-07-13T04:26:42;100098.66;;;31.08;74.93
56270;BME280;42176;43.240;27.880;2023-07-13T04:28:42;100095.63;;;31.36;71.94
56270;BME280;42176;43.240;27.880;2023-07-13T04:30:43;100094.56;;;31.62;70.72
56270;BME280;42176;43.240;27.880;2023-07-13T04:32:43;100102.47;;;31.73;69.50
56270;BME280;42176;43.240;27.880;2023-07-13T04:34:44;100104.25;;;32.23;67.15
56270;BME280;42176;43.240;27.880;2023-07-13T04:36:44;100108.41;;;32.67;63.62
56270;BME280;42176;43.240;27.880;2023-07-13T04:38:45;100103.94;;;33.67;58.51
56270;BME280;42176;43.240;27.880;2023-07-13T04:40:45;100107.16;;;34.39;54.11
56270;BME280;42176;43.240;27.880;2023-07-13T04:42:46;100116.53;;;35.48;49.78
56270;BME280;42176;43.240;27.880;2023-07-13T04:44:48;100110.88;;;36.48;46.35
56270;BME280;42176;43.240;27.880;2023-07-13T04:46:49;100119.03;;;37.32;43.73
56270;BME280;42176;43.240;27.880;2023-07-13T04:48:50;100111.09;;;38.43;40.27
56270;BME280;42176;43.240;27.880;2023-07-13T04:50:57;100110.13;;;39.47;37.55
56270;BME280;42176;43.240;27.880;2023-07-13T04:52:58;100109.84;;;40.25;35.95
56270;BME280;42176;43.240;27.880;2023-07-13T04:55:00;100119.56;;;40.71;34.92
56270;BME280;42176;43.240;27.880;2023-07-13T04:57:00;100097.81;;;40.99;34.14
56270;BME280;42176;43.240;27.880;2023-07-13T04:59:01;100113.09;;;41.50;32.60
56270;BME280;42176;43.240;27.880;2023-07-13T05:01:04;100121.50;;;41.44;32.61
56270;BME280;42176;43.240;27.880;2023-07-13T05:03:05;100118.44;;;41.76;32.23
56270;BME280;42176;43.240;27.880;2023-07-13T05:05:06;100109.00;;;42.24;31.03
56270;BME280;42176;43.240;27.880;2023-07-13T05:07:07;100113.34;;;42.44;31.14
56270;BME280;42176;43.240;27.880;2023-07-13T05:09:07;100106.84;;;42.67;30.73
56270;BME280;42176;43.240;27.880;2023-07-13T05:11:08;100109.91;;;42.95;29.86
56270;BME280;42176;43.240;27.880;2023-07-13T05:13:08;100117.97;;;43.08;29.40
56270;BME280;42176;43.240;27.880;2023-07-13T05:15:09;100116.06;;;43.26;29.10
56270;BME280;42176;43.240;27.880;2023-07-13T05:17:10;100115.66;;;43.51;28.59
56270;BME280;42176;43.240;27.880;2023-07-13T05:19:12;100116.69;;;43.62;27.50
56270;BME280;42176;43.240;27.880;2023-07-13T05:21:13;100121.91;;;43.58;27.98
56270;BME280;42176;43.240;27.880;2023-07-13T05:23:13;100119.72;;;43.77;27.86
56270;BME280;42176;43.240;27.880;2023-07-13T05:25:14;100110.09;;;43.68;27.73
56270;BME280;42176;43.240;27.880;2023-07-13T05:27:14;100118.56;;;43.73;27.27
56270;BME280;42176;43.240;27.880;2023-07-13T05:29:15;100113.63;;;43.80;26.86
56270;BME280;42176;43.240;27.880;2023-07-13T05:31:16;100125.94;;;44.02;25.88
56270;BME280;42176;43.240;27.880;2023-07-13T05:33:16;100120.75;;;44.05;26.88
56270;BME280;42176;43.240;27.880;2023-07-13T05:35:17;100131.72;;;43.61;27.15
56270;BME280;42176;43.240;27.880;2023-07-13T05:37:18;100123.34;;;43.27;27.63
56270;BME280;42176;43.240;27.880;2023-07-13T05:39:18;100128.41;;;43.01;28.41
56270;BME280;42176;43.240;27.880;2023-07-13T05:41:19;100128.38;;;42.72;29.11
56270;BME280;42176;43.240;27.880;2023-07-13T05:43:19;100129.09;;;42.26;29.34
56270;BME280;42176;43.240;27.880;2023-07-13T05:45:20;100128.75;;;42.11;30.02
56270;BME280;42176;43.240;27.880;2023-07-13T05:47:20;100131.41;;;42.18;29.67
56270;BME280;42176;43.240;27.880;2023-07-13T05:49:21;100126.88;;;42.52;28.47
56270;BME280;42176;43.240;27.880;2023-07-13T05:51:21;100122.22;;;42.70;29.06
56270;BME280;42176;43.240;27.880;2023-07-13T05:53:21;100130.31;;;42.83;28.50
56270;BME280;42176;43.240;27.880;2023-07-13T05:55:22;100136.28;;;43.04;27.56
56270;BME280;42176;43.240;27.880;2023-07-13T05:57:22;100137.78;;;43.24;27.72
56270;BME280;42176;43.240;27.880;2023-07-13T05:59:23;100136.09;;;43.40;27.37
56270;BME280;42176;43.240;27.880;2023-07-13T06:01:23;100129.44;;;43.41;27.62
56270;BME280;42176;43.240;27.880;2023-07-13T06:03:24;100143.63;;;43.39;27.60
56270;BME280;42176;43.240;27.880;2023-07-13T06:05:24;100126.13;;;43.44;27.13
56270;BME280;42176;43.240;27.880;2023-07-13T06:07:24;100133.41;;;43.28;27.66
56270;BME280;42176;43.240;27.880;2023-07-13T06:09:25;100135.88;;;43.41;27.85
56270;BME280;42176;43.240;27.880;2023-07-13T06:11:26;100128.50;;;43.35;27.94
56270;BME280;42176;43.240;27.880;2023-07-13T06:13:27;100128.50;;;43.35;27.81
56270;BME280;42176;43.240;27.880;2023-07-13T06:15:28;100139.00;;;43.45;28.43
56270;BME280;42176;43.240;27.880;2023-07-13T06:17:28;100136.88;;;43.06;28.90
56270;BME280;42176;43.240;27.880;2023-07-13T06:19:29;100123.53;;;43.08;27.89
56270;BME280;42176;43.240;27.880;2023-07-13T06:21:29;100133.25;;;43.51;27.23
56270;BME280;42176;43.240;27.880;2023-07-13T06:23:30;100140.69;;;43.63;27.26
56270;BME280;42176;43.240;27.880;2023-07-13T06:25:30;100129.66;;;43.22;27.67
56270;BME280;42176;43.240;27.880;2023-07-13T06:27:31;100129.16;;;42.55;28.51
56270;BME280;42176;43.240;27.880;2023-07-13T06:29:31;100135.53;;;42.68;28.75
56270;BME280;42176;43.240;27.880;2023-07-13T06:31:32;100127.56;;;43.00;28.36
56270;BME280;42176;43.240;27.880;2023-07-13T06:33:32;100130.97;;;42.62;28.61
56270;BME280;42176;43.240;27.880;2023-07-13T06:35:33;100130.25;;;43.24;28.08
56270;BME280;42176;43.240;27.880;2023-07-13T06:37:33;100127.00;;;43.44;27.84
56270;BME280;42176;43.240;27.880;2023-07-13T06:39:34;100124.34;;;43.20;28.38
56270;BME280;42176;43.240;27.880;2023-07-13T06:41:34;100112.97;;;43.73;27.61
56270;BME280;42176;43.240;27.880;2023-07-13T06:43:35;100125.09;;;44.18;27.30
56270;BME280;42176;43.240;27.880;2023-07-13T06:45:44;100127.75;;;44.30;26.95
56270;BME280;42176;43.240;27.880;2023-07-13T06:47:50;100122.69;;;44.27;27.54
56270;BME280;42176;43.240;27.880;2023-07-13T06:49:50;100123.88;;;44.31;27.00
56270;BME280;42176;43.240;27.880;2023-07-13T06:51:51;100129.56;;;44.41;27.34
56270;BME280;42176;43.240;27.880;2023-07-13T06:53:52;100118.34;;;43.97;27.64
56270;BME280;42176;43.240;27.880;2023-07-13T06:55:52;100121.03;;;43.92;27.28
56270;BME280;42176;43.240;27.880;2023-07-13T06:57:53;100115.81;;;43.78;27.88
56270;BME280;42176;43.240;27.880;2023-07-13T06:59:53;100108.53;;;44.11;27.67
56270;BME280;42176;43.240;27.880;2023-07-13T07:01:53;100111.66;;;44.37;27.56
56270;BME280;42176;43.240;27.880;2023-07-13T07:03:54;100108.28;;;44.35;27.68
56270;BME280;42176;43.240;27.880;2023-07-13T07:06:00;100115.56;;;44.36;27.72
56270;BME280;42176;43.240;27.880;2023-07-13T07:08:00;100109.78;;;44.88;26.48
56270;BME280;42176;43.240;27.880;2023-07-13T07:10:01;100115.16;;;44.94;26.26
56270;BME280;42176;43.240;27.880;2023-07-13T07:12:03;100107.00;;;45.20;25.98
56270;BME280;42176;43.240;27.880;2023-07-13T07:14:04;100111.66;;;44.82;26.75
56270;BME280;42176;43.240;27.880;2023-07-13T07:16:04;100115.03;;;44.39;26.94
56270;BME280;42176;43.240;27.880;2023-07-13T07:18:05;100109.88;;;43.92;27.92
56270;BME280;42176;43.240;27.880;2023-07-13T07:20:06;100100.78;;;43.79;28.44
56270;BME280;42176;43.240;27.880;2023-07-13T07:22:07;100116.50;;;43.69;28.39
56270;BME280;42176;43.240;27.880;2023-07-13T07:24:07;100113.63;;;43.80;28.55
56270;BME280;42176;43.240;27.880;2023-07-13T07:26:08;100115.28;;;44.16;28.41
56270;BME280;42176;43.240;27.880;2023-07-13T07:28:12;100108.25;;;44.52;27.35
56270;BME280;42176;43.240;27.880;2023-07-13T07:30:13;100122.00;;;45.09;26.81
56270;BME280;42176;43.240;27.880;2023-07-13T07:32:13;100108.03;;;45.09;26.44
56270;BME280;42176;43.240;27.880;2023-07-13T07:34:15;100107.28;;;44.91;26.69
56270;BME280;42176;43.240;27.880;2023-07-13T07:36:16;100101.81;;;44.52;27.40
56270;BME280;42176;43.240;27.880;2023-07-13T07:38:17;100102.06;;;43.72;28.52
56270;BME280;42176;43.240;27.880;2023-07-13T07:40:18;100104.81;;;43.20;29.17
56270;BME280;42176;43.240;27.880;2023-07-13T07:42:19;100106.03;;;42.96;29.37
56270;BME280;42176;43.240;27.880;2023-07-13T07:44:19;100102.34;;;42.78;29.85
56270;BME280;42176;43.240;27.880;2023-07-13T07:46:20;100111.34;;;42.56;30.26
56270;BME280;42176;43.240;27.880;2023-07-13T07:48:20;100115.28;;;42.32;31.02
56270;BME280;42176;43.240;27.880;2023-07-13T07:50:20;100110.72;;;42.02;30.79
56270;BME280;42176;43.240;27.880;2023-07-13T07:52:21;100102.34;;;41.90;30.70
56270;BME280;42176;43.240;27.880;2023-07-13T07:54:21;100107.09;;;42.01;31.28
56270;BME280;42176;43.240;27.880;2023-07-13T07:56:22;100100.53;;;42.19;30.32
56270;BME280;42176;43.240;27.880;2023-07-13T07:58:22;100096.44;;;42.10;30.68
56270;BME280;42176;43.240;27.880;2023-07-13T08:00:23;100104.66;;;42.05;30.60
56270;BME280;42176;43.240;27.880;2023-07-13T08:02:24;100115.56;;;41.94;31.29
56270;BME280;42176;43.240;27.880;2023-07-13T08:04:25;100106.34;;;42.06;31.20
56270;BME280;42176;43.240;27.880;2023-07-13T08:06:25;100094.72;;;42.21;30.89
56270;BME280;42176;43.240;27.880;2023-07-13T08:08:26;100098.03;;;42.58;30.34
56270;BME280;42176;43.240;27.880;2023-07-13T08:10:26;100093.50;;;42.81;29.43
56270;BME280;42176;43.240;27.880;2023-07-13T08:12:27;100103.41;;;42.77;30.10
56270;BME280;42176;43.240;27.880;2023-07-13T08:14:27;100102.53;;;42.88;29.74
56270;BME280;42176;43.240;27.880;2023-07-13T08:16:28;100094.50;;;42.63;29.56
56270;BME280;42176;43.240;27.880;2023-07-13T08:18:28;100097.13;;;42.41;30.46
56270;BME280;42176;43.240;27.880;2023-07-13T08:20:29;100101.97;;;42.34;30.21
56270;BME280;42176;43.240;27.880;2023-07-13T08:22:29;100091.47;;;42.12;31.07
56270;BME280;42176;43.240;27.880;2023-07-13T08:24:29;100091.13;;;41.96;31.97
56270;BME280;42176;43.240;27.880;2023-07-13T08:26:30;100100.31;;;41.85;31.90
56270;BME280;42176;43.240;27.880;2023-07-13T08:28:31;100092.28;;;42.24;31.18
56270;BME280;42176;43.240;27.880;2023-07-13T08:30:32;100095.31;;;42.35;31.52
56270;BME280;42176;43.240;27.880;2023-07-13T08:32:33;100092.91;;;42.38;31.87
56270;BME280;42176;43.240;27.880;2023-07-13T08:34:33;100087.03;;;42.52;31.42
56270;BME280;42176;43.240;27.880;2023-07-13T08:36:33;100097.50;;;42.33;31.84
56270;BME280;42176;43.240;27.880;2023-07-13T08:38:34;100088.09;;;42.63;30.89
56270;BME280;42176;43.240;27.880;2023-07-13T08:40:34;100084.41;;;42.74;30.89
56270;BME280;42176;43.240;27.880;2023-07-13T08:42:57;100097.25;;;43.67;29.22
56270;BME280;42176;43.240;27.880;2023-07-13T08:45:17;100084.41;;;44.45;27.20
56270;BME280;42176;43.240;27.880;2023-07-13T08:47:22;100084.63;;;44.65;27.26
56270;BME280;42176;43.240;27.880;2023-07-13T08:49:24;100088.22;;;44.61;27.54
56270;BME280;42176;43.240;27.880;2023-07-13T08:53:39;100091.56;;;44.85;27.26
56270;BME280;42176;43.240;27.880;2023-07-13T08:55:42;100091.97;;;44.71;27.95
56270;BME280;42176;43.240;27.880;2023-07-13T08:57:46;100083.66;;;44.32;27.79
56270;BME280;42176;43.240;27.880;2023-07-13T08:59:48;100064.31;;;44.48;26.95
56270;BME280;42176;43.240;27.880;2023-07-13T09:04:21;100080.06;;;42.78;29.91
56270;BME280;42176;43.240;27.880;2023-07-13T09:09:01;100084.63;;;42.84;28.92
56270;BME280;42176;43.240;27.880;2023-07-13T09:13:43;100072.16;;;43.04;28.80
56270;BME280;42176;43.240;27.880;2023-07-13T09:15:46;100076.47;;;42.66;28.47
56270;BME280;42176;43.240;27.880;2023-07-13T09:17:51;100089.41;;;41.72;30.11
56270;BME280;42176;43.240;27.880;2023-07-13T09:20:09;100085.59;;;41.42;30.45
56270;BME280;42176;43.240;27.880;2023-07-13T09:22:14;100091.34;;;41.59;30.31
56270;BME280;42176;43.240;27.880;2023-07-13T09:24:35;100088.50;;;40.93;31.25
56270;BME280;42176;43.240;27.880;2023-07-13T09:26:36;100090.38;;;40.80;31.11
56270;BME280;42176;43.240;27.880;2023-07-13T09:28:47;100082.25;;;40.48;32.07
56270;BME280;42176;43.240;27.880;2023-07-13T09:32:53;100082.59;;;38.29;35.88
56270;BME280;42176;43.240;27.880;2023-07-13T09:34:54;100072.88;;;37.86;36.91
56270;BME280;42176;43.240;27.880;2023-07-13T09:36:55;100075.44;;;37.81;36.96
56270;BME280;42176;43.240;27.880;2023-07-13T09:39:04;100074.78;;;37.12;38.01
56270;BME280;42176;43.240;27.880;2023-07-13T09:41:28;100080.59;;;37.51;37.58
56270;BME280;42176;43.240;27.880;2023-07-13T09:43:31;100065.84;;;37.03;37.90
56270;BME280;42176;43.240;27.880;2023-07-13T09:45:33;100066.84;;;36.82;38.25
56270;BME280;42176;43.240;27.880;2023-07-13T09:47:39;100067.41;;;35.36;41.11
56270;BME280;42176;43.240;27.880;2023-07-13T09:49:40;100061.69;;;34.58;43.79
56270;BME280;42176;43.240;27.880;2023-07-13T09:51:41;100060.13;;;34.19;44.69
56270;BME280;42176;43.240;27.880;2023-07-13T09:53:43;100065.63;;;34.04;44.38
56270;BME280;42176;43.240;27.880;2023-07-13T09:55:48;100052.25;;;34.45;43.65
56270;BME280;42176;43.240;27.880;2023-07-13T09:57:49;100065.13;;;34.97;42.03
56270;BME280;42176;43.240;27.880;2023-07-13T09:59:52;100060.94;;;35.44;41.52
56270;BME280;42176;43.240;27.880;2023-07-13T10:01:53;100043.47;;;35.37;41.21
56270;BME280;42176;43.240;27.880;2023-07-13T10:03:54;100055.69;;;35.78;40.44
56270;BME280;42176;43.240;27.880;2023-07-13T10:06:03;100052.41;;;35.39;40.84
56270;BME280;42176;43.240;27.880;2023-07-13T10:10:23;100055.63;;;34.99;42.74
56270;BME280;42176;43.240;27.880;2023-07-13T10:12:24;100038.97;;;33.74;46.28
56270;BME280;42176;43.240;27.880;2023-07-13T10:14:25;100044.59;;;32.64;50.78
56270;BME280;42176;43.240;27.880;2023-07-13T10:16:30;100052.31;;;32.38;52.61
56270;BME280;42176;43.240;27.880;2023-07-13T10:18:48;100050.22;;;32.40;52.96
56270;BME280;42176;43.240;27.880;2023-07-13T10:20:53;100043.31;;;32.52;52.51
56270;BME280;42176;43.240;27.880;2023-07-13T10:22:58;100043.56;;;32.65;52.06
56270;BME280;42176;43.240;27.880;2023-07-13T10:25:00;100026.47;;;33.10;50.65
56270;BME280;42176;43.240;27.880;2023-07-13T10:27:12;100033.31;;;33.14;49.74
56270;BME280;42176;43.240;27.880;2023-07-13T10:29:16;100036.00;;;33.61;48.59
56270;BME280;42176;43.240;27.880;2023-07-13T10:31:17;100029.84;;;34.49;46.88
56270;BME280;42176;43.240;27.880;2023-07-13T10:33:17;100029.31;;;33.93;46.52
56270;BME280;42176;43.240;27.880;2023-07-13T10:35:20;100023.25;;;32.83;50.37
56270;BME280;42176;43.240;27.880;2023-07-13T10:37:26;100013.44;;;32.57;52.10
56270;BME280;42176;43.240;27.880;2023-07-13T10:39:28;100032.19;;;32.77;50.28